Flight Track Log - Related Links

Times and Time Zones

All times are in EDT time to prevent confusion due to time zone crossing. See the JBU917 flight status page for this flight to view local times or setup timezone preferences in your user account.

Time Position Orientation Groundspeed Altitude Reporting Facility
EDT Latitude Longitude Course Direction KTS MPH feet Rate Location/Type
Sat 05:40:01 PM 40.6167 -73.8000 306° West 147 169 1,400  Level New York TRACON
Sat 05:41:07 PM 40.5667 -73.8000 180° South 222 255 3,200 1,952 Climbing New York TRACON
Sat 05:42:07 PM 40.5833 -73.7167 75° East 285 328 5,500 2,526 Climbing New York TRACON
Sat 05:43:01 PM 40.6333 -73.6667 37° Northeast 288 331 8,000 2,684 Climbing New York TRACON
Sat 05:44:00 PM 40.8947 -74.2680 306° West  Level FlightAware Approximate
Sat 05:44:01 PM 40.6833 -73.5833 52° Northeast 313 360 10,600  Level New York TRACON
Sat 05:45:00 PM 40.9500 -74.3693 306° West  Level FlightAware Approximate
Sat 05:45:07 PM 40.8000 -73.5667 North 341 392 12,300  Level New York TRACON
Sat 05:46:01 PM 40.8667 -73.6000 339° North 332 382 14,300 2,316 Climbing New York TRACON
Sat 05:47:01 PM 40.9333 -73.6833 317° Northwest 319 367 16,700 872 Climbing New York TRACON
Sat 05:49:00 PM 40.9975 -73.8914 292° West 338 389 16,900 607 Climbing New York Center
Sat 05:49:59 PM 41.0258 -74.0000 289° West 320 368 18,500 1,831 Climbing New York Center
Sat 05:50:58 PM 41.0586 -74.0981 294° West 320 368 20,500 2,067 Climbing New York Center
Sat 05:51:58 PM 41.0908 -74.2069 291° West 320 368 22,600 1,835 Climbing New York Center
Sat 05:52:59 PM 41.1250 -74.3189 292° West 320 368 24,200 1,613 Climbing New York Center
Sat 05:53:57 PM 41.1611 -74.4308 293° West 320 368 25,800 1,412 Climbing New York Center
Sat 05:54:58 PM 41.1969 -74.5514 292° West 335 386 27,000 1,122 Climbing New York Center
Sat 05:56:00 PM 41.2367 -74.6750 293° West 348 400 28,100 1,328 Climbing New York Center
Sat 05:57:00 PM 41.2719 -74.7986 291° West 358 412 29,700 1,576 Climbing New York Center
Sat 05:57:58 PM 41.3075 -74.9194 291° West 358 412 31,200 1,424 Climbing New York Center
Sat 05:58:58 PM 41.3428 -75.0350 292° West 353 406 32,500 1,140 Climbing New York Center
Sat 05:59:59 PM 41.3781 -75.1533 292° West 348 400 33,500 836 Climbing New York Center
Sat 06:01:00 PM 41.4114 -75.2689 291° West 343 395 34,200 446 Climbing New York Center
Sat 06:02:00 PM 41.4464 -75.3875 292° West 343 395 34,400 300 Climbing New York Center
Sat 06:03:00 PM 41.4850 -75.5119 293° West 349 402 34,800 403 Climbing New York Center
Sat 06:03:59 PM 41.5214 -75.6447 290° West 363 418 35,200 407 Climbing New York Center
Sat 06:04:58 PM 41.5578 -75.7719 291° West 368 423 35,600 400 Climbing New York Center
Sat 06:05:59 PM 41.5958 -75.9025 291° West 374 430 36,000 197 Climbing New York Center
Sat 06:07:00 PM 41.6319 -76.0331 290° West 374 430 36,000  Level New York Center
Sat 06:08:00 PM 41.6697 -76.1636 291° West 374 430 36,000  Level New York Center
Sat 06:08:58 PM 41.7033 -76.2914 289° West 374 430 36,000  Level New York Center
Sat 06:09:59 PM 41.7411 -76.4225 291° West 374 430 36,000  Level New York Center
Sat 06:10:58 PM 41.7781 -76.5592 290° West 374 430 36,000  Level New York Center
Sat 06:11:58 PM 41.8153 -76.6903 291° West 374 430 36,000  Level New York Center
Sat 06:13:59 PM 41.8836 -76.9458 290° West 384 442 36,000  Level Cleveland Center
Sat 06:14:59 PM 41.9211 -77.0750 291° West 379 436 36,000  Level Cleveland Center
Sat 06:15:59 PM 41.9564 -77.2072 290° West 379 436 36,000  Level Cleveland Center
Sat 06:16:59 PM 41.9933 -77.3394 291° West 379 436 36,000  Level Cleveland Center
Sat 06:17:59 PM 42.0283 -77.4689 290° West 379 436 36,000  Level Cleveland Center
Sat 06:18:59 PM 42.0653 -77.6097 290° West 379 436 36,000  Level Cleveland Center
Sat 06:19:59 PM 42.0981 -77.7428 288° West 379 436 36,000  Level Cleveland Center
Sat 06:20:59 PM 42.1344 -77.8756 290° West 379 436 36,000  Level Cleveland Center
Sat 06:21:59 PM 42.1689 -78.0058 290° West 379 436 36,000  Level Cleveland Center
Sat 06:22:59 PM 42.2028 -78.1361 289° West 379 436 36,000  Level Cleveland Center
Sat 06:23:59 PM 42.2369 -78.2694 289° West 379 436 36,000  Level Cleveland Center
Sat 06:24:59 PM 42.2708 -78.4000 289° West 379 436 36,000  Level Cleveland Center
Sat 06:25:59 PM 42.3044 -78.5308 289° West 379 436 36,000  Level Cleveland Center
Sat 06:26:59 PM 42.3381 -78.6619 289° West 379 436 36,000  Level Cleveland Center
Sat 06:27:59 PM 42.3714 -78.7928 289° West 379 436 36,000  Level Cleveland Center
Sat 06:28:59 PM 42.4003 -78.9131 288° West 373 429 36,000  Level Cleveland Center
Sat 06:29:59 PM 42.4311 -79.0472 287° West 373 429 36,000  Level Cleveland Center
Sat 06:30:59 PM 42.4728 -79.1925 291° West 378 435 36,000  Level Cleveland Center
Sat 06:31:59 PM 42.4972 -79.3272 284° West 378 435 36,000  Level Cleveland Center
Sat 06:32:59 PM 42.5028 -79.4653 273° West 373 429 36,000  Level Cleveland Center
Sat 06:33:59 PM 42.5081 -79.6031 273° West 368 423 36,000  Level Cleveland Center
Sat 06:34:59 PM 42.5133 -79.7411 273° West 368 423 36,000  Level Cleveland Center
Sat 06:35:59 PM 42.5228 -79.8789 275° West 368 423 36,000  Level Cleveland Center
Sat 06:36:59 PM 42.5256 -80.0114 272° West 375 432 36,000  Level Cleveland Center
Sat 06:37:59 PM 42.5303 -80.1464 273° West 375 432 36,000  Level Cleveland Center
Sat 06:38:59 PM 42.5369 -80.3042 273° West 380 437 36,000  Level Cleveland Center
Sat 06:39:59 PM 42.5436 -80.4422 274° West 380 437 36,000  Level Cleveland Center
Sat 06:40:59 PM 42.5497 -80.5831 273° West 382 440 36,000  Level Cleveland Center
Sat 06:41:59 PM 42.5561 -80.7297 273° West 382 440 36,000  Level Cleveland Center
Sat 06:42:59 PM 42.5600 -80.8708 272° West 382 440 36,000  Level Cleveland Center
Sat 06:43:59 PM 42.5656 -81.0144 273° West 382 440 36,000  Level Cleveland Center
Sat 06:44:59 PM 42.5714 -81.1583 273° West 382 440 36,000  Level Cleveland Center
Sat 06:45:59 PM 42.5747 -81.3022 272° West 382 440 36,000  Level Cleveland Center
Sat 06:46:59 PM 42.5819 -81.4403 274° West 382 440 36,000  Level Cleveland Center
Sat 06:47:59 PM 42.6081 -81.5847 284° West 387 445 36,000  Level Cleveland Center
Sat 06:48:59 PM 42.6317 -81.7261 283° West 387 445 36,000  Level Cleveland Center
Sat 06:49:59 PM 42.6511 -81.8506 282° West 382 440 36,000  Level Cleveland Center
Sat 06:50:59 PM 42.6767 -81.9925 284° West 382 440 36,000  Level Cleveland Center
Sat 06:51:59 PM 42.6997 -82.1342 283° West 382 440 36,000  Level Cleveland Center
Sat 06:52:59 PM 42.7250 -82.2789 283° West 388 447 36,000  Level Cleveland Center
Sat 06:53:59 PM 42.7497 -82.4239 283° West 394 453 36,000  Level Cleveland Center
Sat 06:54:59 PM 42.7744 -82.5744 283° West 399 459 36,000  Level Cleveland Center
Sat 06:55:59 PM 42.7989 -82.7225 283° West 399 459 36,000  Level Cleveland Center
Sat 06:56:59 PM 42.8250 -82.8706 284° West 399 459 36,000  Level Cleveland Center
Sat 06:57:59 PM 42.8472 -83.0186 282° West 399 459 36,000 -250 Level Cleveland Center
Sat 06:58:59 PM 42.8628 -83.1664 278° West 399 459 35,500 -750 Descending Cleveland Center
Sat 06:59:59 PM 42.8653 -83.3194 271° West 399 459 34,500 -1,000 Descending Cleveland Center
Sat 07:00:59 PM 42.8661 -83.4642 270° West 399 459 33,500 -1,100 Descending Cleveland Center
Sat 07:01:59 PM 42.8703 -83.6286 272° West 399 459 32,300 -1,100 Descending Cleveland Center
Sat 07:02:59 PM 42.8722 -83.7789 271° West 399 459 31,300 -1,000 Descending Cleveland Center
Sat 07:03:59 PM 42.8725 -83.9233 270° West 399 459 30,300 -650 Descending Cleveland Center
Sat 07:04:59 PM 42.8764 -84.0711 272° West 399 459 30,000 -150 Descending Cleveland Center
Sat 07:05:59 PM 42.8803 -84.2186 272° West 399 459 30,000  Level Cleveland Center
Sat 07:07:48 PM 42.8836 -84.4664 271° West 391 450 30,000  Level Chicago Center
Sat 07:08:49 PM 42.8819 -84.6133 269° West 390 449 30,000  Level Chicago Center
Sat 07:09:51 PM 42.8664 -84.7592 262° West 391 450 30,000  Level Chicago Center
Sat 07:10:52 PM 42.8481 -84.9342 262° West 390 449 30,000  Level Chicago Center
Sat 07:11:53 PM 42.8319 -85.0794 261° West 389 448 30,000  Level Chicago Center
Sat 07:12:54 PM 42.8158 -85.2239 261° West 387 445 30,000  Level Chicago Center
Sat 07:13:56 PM 42.8011 -85.3692 262° West 388 447 30,000 -390 Level Chicago Center
Sat 07:14:57 PM 42.7839 -85.5131 261° West 386 444 29,200 -1,279 Descending Chicago Center
Sat 07:15:58 PM 42.7583 -85.6550 256° West 384 442 27,400 -1,672 Descending Chicago Center
Sat 07:16:59 PM 42.7339 -85.7917 256° West 375 432 25,800 -1,561 Descending Chicago Center
Sat 07:18:01 PM 42.7094 -85.9253 256° West 364 419 24,200 -1,561 Descending Chicago Center
Sat 07:19:02 PM 42.6853 -86.0550 256° West 354 407 22,600 -1,525 Descending Chicago Center
Sat 07:20:03 PM 42.6639 -86.1797 257° West 341 392 21,100 -1,475 Descending Chicago Center
Sat 07:21:04 PM 42.6406 -86.3031 256° West 337 388 19,600 -1,415 Descending Chicago Center
Sat 07:22:06 PM 42.6183 -86.4181 255° West 320 368 18,200 -1,317 Descending Chicago Center
Sat 07:23:07 PM 42.5958 -86.5353 255° West 320 368 16,900 -2,016 Descending Chicago Center
Sat 07:24:08 PM 42.5694 -86.6742 256° West 317 365 14,100 -2,361 Descending Chicago Center
Sat 07:25:09 PM 42.5453 -86.7828 253° West 304 350 12,100 -1,707 Descending Chicago Center
Sat 07:26:11 PM 42.5200 -86.8769 250° West 272 313 10,600 -1,317 Descending Chicago Center
Sat 07:27:12 PM 42.4967 -86.9625 250° West 247 284 9,400 -787 Descending Chicago Center
Sat 07:28:13 PM 42.4742 -87.0447 250° West 236 272 9,000 -197 Descending Chicago Center
Sat 07:29:14 PM 42.4503 -87.1303 249° West 241 277 9,000  Level Chicago Center
Sat 07:30:16 PM 42.4267 -87.2136 249° West 240 276 9,000  Level Chicago Center
Sat 07:31:17 PM 42.4042 -87.2989 250° West 242 278 9,000  Level Chicago Center
Sat 07:32:18 PM 42.3383 -87.3294 199° South 293 337 9,000  Level Chicago Center
Sat 07:33:20 PM 42.2572 -87.3400 186° South 288 331 9,000 -488 Level Chicago Center
Sat 07:34:21 PM 42.1922 -87.3825 206° Southwest 263 303 8,000 -1,113 Descending Chicago Center
Sat 07:35:24 PM 42.1167 -87.4333 207° Southwest 249 287 6,700 -1,128 Descending Chicago TRACON
Sat 07:36:18 PM 42.0667 -87.4833 217° Southwest 224 258 5,800 -1,421 Descending Chicago TRACON
Sat 07:37:18 PM 42.0167 -87.5167 206° Southwest 203 234 4,000 -947 Descending Chicago TRACON
Sat 07:38:12 PM 41.9833 -87.5667 228° Southwest 204 235 4,000  Level Chicago TRACON
Sat 07:39:13 PM 41.9833 -87.6333 270° West 200 230 4,000 -298 Level Chicago TRACON
Sat 07:40:13 PM 41.9833 -87.7000 270° West 180 207 3,400 -750 Descending Chicago TRACON
Sat 07:41:13 PM 41.9833 -87.7667 270° West 153 176 2,500 -850 Descending Chicago TRACON
Sat 07:42:13 PM 41.9833 -87.8167 270° West 133 153 1,700 -750 Descending Chicago TRACON
Sat 07:43:13 PM 41.9833 -87.8667 270° West 132 152 1,000 -700 Descending Chicago TRACON

Login

Don't have an account? Register now (free) for customized features, flight alerts, and more!